Time;durP1;ratioP1;P1;durP2;ratioP2;P2;SDS_P1;SDS_P2;PMS_P1;PMS_P2;Temp;Humidity;BMP_temperature;BMP_pressure;BME280_temperature;BME280_humidity;BME280_pressure;Samples;Min_cycle;Max_cycle;Signal;HPM_P1;HPM_P2
2021/05/12 00:00:41;;;;;;;;;;;;;;;15.28;42.12;94586.75;4984813;28;19921;-81
2021/05/12 00:03:07;;;;;;;;;;;;;;;15.29;42.36;94582.28;4985457;28;19918;-80
2021/05/12 00:05:32;;;;;;;;;;;;;;;15.23;42.74;94588.59;4986085;28;19918;-80
2021/05/12 00:08:00;;;;;;;;;;;;;;;15.27;42.52;94589.63;4992395;28;19922;-81
2021/05/12 00:10:25;;;;;;;;;;;;;;;15.29;42.61;94583.09;4985404;28;19924;-81
2021/05/12 00:12:50;;;;;;;;;;;;;;;15.18;42.99;94581.53;4978782;28;19918;-81
2021/05/12 00:15:17;;;;;;;;;;;;;;;15.18;42.95;94575.53;5000803;28;19953;-80
2021/05/12 00:17:44;;;;;;;;;;;;;;;15.24;43.22;94575.22;5000971;28;19918;-81
2021/05/12 00:20:10;;;;;;;;;;;;;;;15.27;43.27;94574.69;4975773;28;19925;-81
2021/05/12 00:22:42;;;;;;;;;;;;;;;15.27;43.11;94573.91;4975760;28;19972;-81
2021/05/12 00:25:08;;;;;;;;;;;;;;;15.18;43.16;94565.81;5055829;22;19929;-81
2021/05/12 00:27:34;;;;;;;;;;;;;;;15.30;43.27;94568.16;4993309;28;19918;-81
2021/05/12 00:29:59;;;;;;;;;;;;;;;15.29;43.04;94566.56;4999540;28;19924;-82
2021/05/12 00:32:24;;;;;;;;;;;;;;;15.21;43.15;94560.06;4986761;28;19917;-80
2021/05/12 00:34:49;;;;;;;;;;;;;;;15.18;43.35;94555.34;5000388;28;19953;-80
2021/05/12 00:37:15;;;;;;;;;;;;;;;15.01;43.79;94550.41;4987524;28;20458;-80
2021/05/12 00:39:40;;;;;;;;;;;;;;;15.06;43.93;94552.22;5004977;28;19918;-80
2021/05/12 00:42:05;;;;;;;;;;;;;;;15.08;44.09;94560.59;4988008;28;19921;-81
2021/05/12 00:44:31;;;;;;;;;;;;;;;15.13;43.66;94554.56;5006524;28;19973;-81
2021/05/12 00:46:56;;;;;;;;;;;;;;;15.17;43.93;94551.16;4989554;28;19917;-82
2021/05/12 00:49:23;;;;;;;;;;;;;;;15.21;43.92;94552.19;5014961;28;19929;-81
2021/05/12 00:51:48;;;;;;;;;;;;;;;15.19;44.24;94548.28;4999944;28;19928;-81
2021/05/12 00:54:13;;;;;;;;;;;;;;;15.09;44.32;94537.81;5008420;28;20322;-81
2021/05/12 00:56:40;;;;;;;;;;;;;;;15.16;43.89;94541.75;4985847;28;20361;-80
2021/05/12 00:59:05;;;;;;;;;;;;;;;15.15;44.11;94542.00;4985703;28;20437;-81
2021/05/12 01:01:31;;;;;;;;;;;;;;;15.04;44.47;94532.59;5000520;28;20250;-81
2021/05/12 01:03:56;;;;;;;;;;;;;;;15.06;44.61;94533.13;5007945;28;20348;-81
2021/05/12 01:06:23;;;;;;;;;;;;;;;15.07;44.58;94539.94;4983765;23;20038;-81
2021/05/12 01:08:48;;;;;;;;;;;;;;;15.12;44.84;94529.44;4962302;28;19926;-80
2021/05/12 01:11:13;;;;;;;;;;;;;;;15.15;44.33;94528.91;4956231;28;19918;-79
2021/05/12 01:13:38;;;;;;;;;;;;;;;15.21;45.07;94527.84;4956304;28;19918;-80
2021/05/12 01:16:04;;;;;;;;;;;;;;;15.28;45.73;94523.09;4956264;28;20016;-80
2021/05/12 01:18:29;;;;;;;;;;;;;;;15.29;45.72;94514.19;5033978;23;19921;-80
2021/05/12 01:21:00;;;;;;;;;;;;;;;15.28;45.89;94515.22;5025120;28;19918;-80
2021/05/12 01:23:26;;;;;;;;;;;;;;;15.21;46.45;94512.91;5010586;28;19917;-80
2021/05/12 01:25:52;;;;;;;;;;;;;;;15.17;46.95;94509.25;5005261;28;19921;-80
2021/05/12 01:28:18;;;;;;;;;;;;;;;15.16;46.60;94510.31;5004933;28;20326;-80
2021/05/12 01:30:50;;;;;;;;;;;;;;;15.08;47.03;94515.31;5001947;28;19921;-80
2021/05/12 01:33:15;;;;;;;;;;;;;;;15.08;47.49;94516.09;5001877;28;20444;-79
2021/05/12 01:35:41;;;;;;;;;;;;;;;15.04;47.56;94515.06;5005692;28;19918;-79
2021/05/12 01:38:06;;;;;;;;;;;;;;;15.04;46.49;94515.06;5003258;28;20404;-80
2021/05/12 01:40:31;;;;;;;;;;;;;;;14.97;46.21;94507.50;5007698;28;19921;-80
2021/05/12 01:42:57;;;;;;;;;;;;;;;14.83;46.89;94511.72;5098393;22;20266;-79
2021/05/12 01:45:37;;;;;;;;;;;;;;;14.78;47.02;94509.09;4987474;28;19926;-79
2021/05/12 01:48:05;;;;;;;;;;;;;;;14.72;47.12;94502.31;4984736;28;19925;-80
2021/05/12 01:50:31;;;;;;;;;;;;;;;14.73;47.20;94503.88;5060603;22;19922;-79
2021/05/12 01:52:58;;;;;;;;;;;;;;;14.72;46.90;94494.44;4985925;28;19929;-79
2021/05/12 01:55:23;;;;;;;;;;;;;;;14.69;48.20;94498.38;4983036;28;20022;-79
2021/05/12 01:57:49;;;;;;;;;;;;;;;14.66;48.46;94492.91;4987205;28;19914;-78
2021/05/12 02:00:20;;;;;;;;;;;;;;;14.58;48.78;94491.59;4999097;28;19922;-78
2021/05/12 02:02:45;;;;;;;;;;;;;;;14.61;48.29;94492.88;5003205;28;19985;-80
2021/05/12 02:05:10;;;;;;;;;;;;;;;14.55;47.64;94488.72;4986741;28;19954;-80
2021/05/12 02:10:11;;;;;;;;;;;;;;;14.44;47.23;94484.53;5506340;22;19922;-79
2021/05/12 02:15:12;;;;;;;;;;;;;;;14.23;47.90;94487.16;5515277;22;19929;-79
2021/05/12 02:17:37;;;;;;;;;;;;;;;14.10;48.16;94487.66;4987070;28;19922;-79
2021/05/12 02:20:03;;;;;;;;;;;;;;;14.05;48.46;94487.66;5846119;23;20714;-78
2021/05/12 02:22:28;;;;;;;;;;;;;;;14.01;48.85;94484.00;4961526;28;20287;-78
2021/05/12 02:24:54;;;;;;;;;;;;;;;14.00;48.76;94487.66;4966304;28;19929;-78
2021/05/12 02:27:19;;;;;;;;;;;;;;;13.95;49.00;94491.03;4965584;28;19918;-79
2021/05/12 02:29:44;;;;;;;;;;;;;;;13.93;49.18;94481.91;4971753;28;20366;-79
2021/05/12 02:32:10;;;;;;;;;;;;;;;13.87;49.69;94481.13;4963316;28;20400;-78
2021/05/12 02:34:35;;;;;;;;;;;;;;;13.88;49.20;94484.53;4972816;28;20528;-77
2021/05/12 02:37:01;;;;;;;;;;;;;;;13.87;48.87;94481.13;4987063;28;20401;-77
2021/05/12 02:39:28;;;;;;;;;;;;;;;13.85;48.96;94472.75;5003244;28;19930;-77
2021/05/12 02:41:53;;;;;;;;;;;;;;;13.84;49.76;94492.09;4987443;28;19919;-78
2021/05/12 02:44:19;;;;;;;;;;;;;;;13.89;49.74;94480.84;5003669;28;19918;-78
2021/05/12 02:46:44;;;;;;;;;;;;;;;13.89;49.59;94473.81;4980485;28;19914;-80
2021/05/12 02:49:09;;;;;;;;;;;;;;;13.84;49.13;94478.25;4989736;28;19960;-80
2021/05/12 02:51:35;;;;;;;;;;;;;;;13.79;49.25;94482.41;4955877;28;19918;-80
2021/05/12 02:54:00;;;;;;;;;;;;;;;13.81;49.68;94482.94;4969428;28;19918;-79
2021/05/12 02:56:25;;;;;;;;;;;;;;;13.85;50.30;94477.19;4968231;28;19929;-79
2021/05/12 02:58:51;;;;;;;;;;;;;;;13.87;51.15;94488.19;4971140;28;19939;-79
2021/05/12 03:01:16;;;;;;;;;;;;;;;13.82;51.23;94484.50;4970101;28;20318;-80
2021/05/12 03:03:41;;;;;;;;;;;;;;;13.82;51.22;94481.88;4976436;28;19982;-79
2021/05/12 03:06:06;;;;;;;;;;;;;;;13.82;50.39;94489.72;4974773;28;20007;-80
2021/05/12 03:08:32;;;;;;;;;;;;;;;13.87;49.29;94491.56;4967978;28;19964;-79
2021/05/12 03:10:57;;;;;;;;;;;;;;;13.91;48.81;94478.75;4967076;28;19942;-79
2021/05/12 03:13:23;;;;;;;;;;;;;;;13.93;49.41;94481.91;4969962;28;19923;-80
2021/05/12 03:15:51;;;;;;;;;;;;;;;13.95;50.42;94485.81;4974928;28;20422;-79
2021/05/12 03:18:16;;;;;;;;;;;;;;;13.92;49.88;94490.78;4992277;28;19925;-79
2021/05/12 03:20:42;;;;;;;;;;;;;;;13.89;49.87;94488.69;4975184;28;19918;-80
2021/05/12 03:23:07;;;;;;;;;;;;;;;13.91;49.88;94482.16;4989558;28;19918;-80
2021/05/12 03:25:32;;;;;;;;;;;;;;;13.97;49.71;94485.56;4967372;28;19918;-80
2021/05/12 03:27:57;;;;;;;;;;;;;;;13.98;49.18;94474.06;4970621;28;19925;-79
2021/05/12 03:30:27;;;;;;;;;;;;;;;14.07;49.22;94478.50;4968675;28;19918;-79
2021/05/12 03:32:52;;;;;;;;;;;;;;;14.12;49.75;94469.88;4976104;28;20009;-80
2021/05/12 03:35:17;;;;;;;;;;;;;;;14.17;48.94;94471.72;4992484;28;19982;-80
2021/05/12 03:37:43;;;;;;;;;;;;;;;14.24;48.63;94478.25;4969598;28;20405;-80
2021/05/12 03:40:08;;;;;;;;;;;;;;;14.28;49.14;94468.81;4984629;28;20038;-79
2021/05/12 03:42:36;;;;;;;;;;;;;;;14.32;48.10;94458.66;4965086;28;19933;-79
2021/05/12 03:45:01;;;;;;;;;;;;;;;14.35;49.39;94464.13;4966046;28;19918;-78
2021/05/12 03:47:26;;;;;;;;;;;;;;;14.38;49.21;94468.81;4964811;28;19925;-77
2021/05/12 03:49:52;;;;;;;;;;;;;;;14.41;49.27;94464.91;4988580;28;19961;-79
2021/05/12 03:52:17;;;;;;;;;;;;;;;14.45;49.01;94467.78;4964762;28;19969;-80
2021/05/12 03:54:50;;;;;;;;;;;;;;;14.53;48.40;94468.06;4988554;28;19918;-79
2021/05/12 03:57:15;;;;;;;;;;;;;;;14.63;48.11;94462.78;4965466;28;20432;-80
2021/05/12 03:59:40;;;;;;;;;;;;;;;14.77;48.20;94464.84;4967721;28;20016;-82
2021/05/12 04:02:06;;;;;;;;;;;;;;;14.93;47.41;94459.31;4964702;28;19930;-81
2021/05/12 04:04:31;;;;;;;;;;;;;;;16.20;44.18;94461.25;4967504;28;19926;-80
2021/05/12 04:06:56;;;;;;;;;;;;;;;18.30;39.83;94457.69;4958564;28;19918;-81
2021/05/12 04:09:22;;;;;;;;;;;;;;;20.20;35.32;94445.78;4968109;28;19922;-82
2021/05/12 04:11:48;;;;;;;;;;;;;;;21.65;32.56;94453.88;4971766;28;20009;-81
2021/05/12 04:14:13;;;;;;;;;;;;;;;23.12;29.60;94451.06;4964423;28;20314;-81
2021/05/12 04:16:38;;;;;;;;;;;;;;;24.55;28.35;94445.34;4966781;28;20336;-83
2021/05/12 04:19:04;;;;;;;;;;;;;;;26.10;26.16;94447.13;4966811;28;19929;-85
2021/05/12 04:21:30;;;;;;;;;;;;;;;26.66;24.95;94441.78;4987188;28;19918;-81
2021/05/12 04:23:55;;;;;;;;;;;;;;;25.55;26.61;94437.91;4965792;28;19921;-79
2021/05/12 04:26:27;;;;;;;;;;;;;;;25.43;26.44;94433.38;4971396;28;19918;-78
2021/05/12 04:28:52;;;;;;;;;;;;;;;27.05;24.43;94444.69;4973174;28;19918;-80
2021/05/12 04:31:17;;;;;;;;;;;;;;;28.42;22.27;94428.56;4967046;28;19946;-78
2021/05/12 04:33:42;;;;;;;;;;;;;;;29.56;21.31;94426.66;4971711;28;20433;-79
2021/05/12 04:36:08;;;;;;;;;;;;;;;31.06;19.29;94423.78;4999822;22;19925;-79
2021/05/12 04:38:33;;;;;;;;;;;;;;;31.88;18.06;94421.69;4987951;28;19960;-79
2021/05/12 04:40:59;;;;;;;;;;;;;;;33.07;16.52;94415.53;4989119;28;20382;-82
2021/05/12 04:43:25;;;;;;;;;;;;;;;34.19;15.59;94412.28;4992212;28;19926;-80
2021/05/12 04:45:50;;;;;;;;;;;;;;;35.16;14.83;94424.06;4966694;28;19918;-79
2021/05/12 04:48:15;;;;;;;;;;;;;;;35.55;14.49;94423.75;4986033;28;19963;-79
2021/05/12 04:50:41;;;;;;;;;;;;;;;35.76;14.31;94417.34;4984267;28;19921;-80
2021/05/12 04:53:31;;;;;;;;;;;;;;;35.84;14.45;94426.16;4994467;28;20462;-80
2021/05/12 04:55:57;;;;;;;;;;;;;;;37.09;13.26;94417.22;5018347;22;20393;-79
2021/05/12 04:58:22;;;;;;;;;;;;;;;37.43;13.30;94420.59;4984426;28;20017;-80
2021/05/12 05:03:17;;;;;;;;;;;;;;;39.43;11.32;94406.38;5068415;22;19922;-79
2021/05/12 05:05:42;;;;;;;;;;;;;;;39.75;11.25;94410.25;4973256;28;19918;-79
2021/05/12 05:08:07;;;;;;;;;;;;;;;39.08;11.72;94399.84;4974326;28;20396;-78
2021/05/12 05:10:33;;;;;;;;;;;;;;;38.89;11.62;94389.78;4974384;28;19929;-79
2021/05/12 05:12:58;;;;;;;;;;;;;;;39.55;11.22;94391.34;4975888;28;19922;-82
2021/05/12 05:15:23;;;;;;;;;;;;;;;39.03;11.58;94379.34;4974349;28;19972;-67
2021/05/12 05:17:52;;;;;;;;;;;;;;;37.85;11.84;94378.38;4971255;28;19929;-67
2021/05/12 05:20:17;;;;;;;;;;;;;;;37.05;12.51;94378.59;4971747;28;19918;-67
2021/05/12 05:22:43;;;;;;;;;;;;;;;36.44;12.75;94389.53;4970350;28;20009;-67
2021/05/12 05:25:08;;;;;;;;;;;;;;;36.04;13.41;94383.81;4971782;28;20042;-66
2021/05/12 05:27:33;;;;;;;;;;;;;;;35.59;13.89;94375.78;4970854;28;19980;-66
2021/05/12 05:29:59;;;;;;;;;;;;;;;35.82;13.96;94379.81;4971241;28;20008;-67
2021/05/12 05:32:24;;;;;;;;;;;;;;;35.70;13.78;94379.16;4970698;28;19918;-67
2021/05/12 05:34:49;;;;;;;;;;;;;;;36.02;13.53;94367.22;4971362;28;20327;-67
2021/05/12 05:37:15;;;;;;;;;;;;;;;36.79;13.26;94359.22;4970654;28;19965;-66
2021/05/12 05:39:40;;;;;;;;;;;;;;;37.50;12.32;94366.22;4971108;28;19920;-67
2021/05/12 05:42:06;;;;;;;;;;;;;;;37.88;11.91;94363.19;4971148;28;20393;-67
2021/05/12 05:44:38;;;;;;;;;;;;;;;38.48;11.61;94361.19;5179610;27;20317;-66
2021/05/12 05:47:03;;;;;;;;;;;;;;;39.49;11.10;94365.78;5179058;27;19922;-66
2021/05/12 05:49:28;;;;;;;;;;;;;;;40.43;10.73;94365.56;5158311;27;19920;-66
2021/05/12 05:51:54;;;;;;;;;;;;;;;41.16;10.23;94357.47;5157041;27;19923;-66
2021/05/12 05:54:19;;;;;;;;;;;;;;;41.98;9.99;94363.63;5157101;27;19980;-66
2021/05/12 05:56:45;;;;;;;;;;;;;;;42.82;9.56;94364.41;5156650;27;19919;-66
2021/05/12 05:59:10;;;;;;;;;;;;;;;43.50;8.93;94366.41;5157836;27;19930;-66
2021/05/12 06:01:35;;;;;;;;;;;;;;;43.74;8.46;94361.84;5155520;27;19920;-66
2021/05/12 06:04:00;;;;;;;;;;;;;;;44.07;8.27;94358.44;5156938;27;20100;-65
2021/05/12 06:06:26;;;;;;;;;;;;;;;44.28;8.20;94352.03;5157123;27;19921;-66
2021/05/12 06:08:52;;;;;;;;;;;;;;;44.20;8.38;94350.84;5157508;27;19926;-66
2021/05/12 06:11:17;;;;;;;;;;;;;;;44.23;8.15;94334.22;5156153;27;19986;-66
2021/05/12 06:13:43;;;;;;;;;;;;;;;44.29;8.14;94332.41;5157326;27;19923;-66
2021/05/12 06:16:08;;;;;;;;;;;;;;;44.56;8.00;94333.53;5157006;27;20386;-66
2021/05/12 06:18:33;;;;;;;;;;;;;;;44.17;8.43;94336.09;5154418;27;20382;-66
2021/05/12 06:20:59;;;;;;;;;;;;;;;43.79;8.65;94333.09;5156988;27;19919;-72
2021/05/12 06:23:24;;;;;;;;;;;;;;;43.68;8.62;94328.06;5159078;27;20398;-72
2021/05/12 06:25:52;;;;;;;;;;;;;;;43.64;8.77;94327.44;5157178;27;19962;-72
2021/05/12 06:28:19;;;;;;;;;;;;;;;43.06;8.69;94317.34;5154990;27;19926;-72
2021/05/12 06:30:49;;;;;;;;;;;;;;;41.94;9.22;94313.84;5155324;27;20476;-72
2021/05/12 06:33:14;;;;;;;;;;;;;;;40.15;10.92;94318.09;5156307;27;19958;-72
2021/05/12 06:35:40;;;;;;;;;;;;;;;39.02;11.34;94317.22;5152993;27;19970;-72
2021/05/12 06:38:05;;;;;;;;;;;;;;;37.54;12.28;94307.22;5157433;27;20398;-72
2021/05/12 06:40:30;;;;;;;;;;;;;;;36.50;13.28;94307.41;5155077;27;19930;-72
2021/05/12 06:42:58;;;;;;;;;;;;;;;35.23;14.21;94307.78;5153731;27;19930;-73
2021/05/12 06:45:24;;;;;;;;;;;;;;;34.45;14.92;94303.78;5155245;27;20009;-72
2021/05/12 06:47:53;;;;;;;;;;;;;;;33.65;15.61;94304.53;5156060;27;20049;-72
2021/05/12 06:50:19;;;;;;;;;;;;;;;32.95;16.36;94306.22;5155502;27;19975;-72
2021/05/12 06:52:44;;;;;;;;;;;;;;;31.84;17.44;94309.91;5152194;27;19919;-72
2021/05/12 06:55:09;;;;;;;;;;;;;;;31.12;18.24;94305.28;5146592;27;19988;-72
2021/05/12 06:57:35;;;;;;;;;;;;;;;30.59;19.27;94308.31;5141669;27;19924;-72
2021/05/12 07:00:00;;;;;;;;;;;;;;;30.24;19.76;94314.13;5123782;27;19923;-72
2021/05/12 07:02:25;;;;;;;;;;;;;;;30.16;19.29;94297.22;5140486;27;19923;-72
2021/05/12 07:04:50;;;;;;;;;;;;;;;29.80;20.03;94302.19;5139595;27;20021;-72
2021/05/12 07:07:16;;;;;;;;;;;;;;;29.46;20.58;94296.03;5141645;27;19923;-72
2021/05/12 07:09:41;;;;;;;;;;;;;;;29.24;20.62;94296.84;5141925;27;19923;-72
2021/05/12 07:12:06;;;;;;;;;;;;;;;28.68;21.46;94292.97;5140369;27;19931;-72
2021/05/12 07:14:32;;;;;;;;;;;;;;;28.29;22.02;94297.69;5140873;27;19954;-72
2021/05/12 07:16:57;;;;;;;;;;;;;;;28.19;22.06;94292.91;5141922;27;19938;-72
2021/05/12 07:19:22;;;;;;;;;;;;;;;28.02;22.50;94294.16;5140708;27;19919;-72
2021/05/12 07:21:47;;;;;;;;;;;;;;;28.02;22.04;94288.81;5141419;27;20505;-73
2021/05/12 07:24:13;;;;;;;;;;;;;;;28.06;22.24;94288.84;5142334;27;19923;-72
2021/05/12 07:26:38;;;;;;;;;;;;;;;28.10;22.16;94270.97;5142331;27;20573;-72
2021/05/12 07:29:03;;;;;;;;;;;;;;;28.13;22.23;94270.25;5140655;27;20329;-72
2021/05/12 07:31:28;;;;;;;;;;;;;;;27.97;22.47;94275.72;5141389;27;19919;-71
2021/05/12 07:33:54;;;;;;;;;;;;;;;27.72;22.34;94274.50;5141736;27;19919;-73
2021/05/12 07:36:19;;;;;;;;;;;;;;;27.63;22.50;94271.22;5140686;27;19964;-74
2021/05/12 07:38:44;;;;;;;;;;;;;;;27.66;22.30;94275.88;5131383;27;19919;-74
2021/05/12 07:41:10;;;;;;;;;;;;;;;27.72;22.39;94263.81;5141324;27;19937;-75
2021/05/12 07:43:35;;;;;;;;;;;;;;;27.79;22.85;94259.34;5142876;27;19919;-75
2021/05/12 07:46:00;;;;;;;;;;;;;;;27.84;22.72;94268.22;5143806;27;19930;-76
2021/05/12 07:48:26;;;;;;;;;;;;;;;27.83;22.33;94256.78;5143155;27;19925;-76
2021/05/12 07:50:51;;;;;;;;;;;;;;;27.77;22.28;94258.16;5122730;27;19919;-76
2021/05/12 07:53:16;;;;;;;;;;;;;;;27.60;22.83;94251.34;5140607;27;19930;-75
2021/05/12 07:55:43;;;;;;;;;;;;;;;27.39;22.72;94243.69;5142067;27;19919;-75
2021/05/12 07:58:08;;;;;;;;;;;;;;;27.43;23.16;94251.78;5121963;27;19915;-74
2021/05/12 08:00:34;;;;;;;;;;;;;;;27.49;22.94;94245.78;5141181;27;19926;-74
2021/05/12 08:03:00;;;;;;;;;;;;;;;27.57;23.50;94240.59;5140833;27;19983;-74
2021/05/12 08:05:25;;;;;;;;;;;;;;;27.41;23.11;94246.78;5140769;27;19923;-74
2021/05/12 08:07:50;;;;;;;;;;;;;;;27.34;23.52;94244.00;5139963;27;20306;-74
2021/05/12 08:10:16;;;;;;;;;;;;;;;27.17;23.71;94239.03;5141419;27;20311;-74
2021/05/12 08:12:41;;;;;;;;;;;;;;;27.10;23.36;94238.91;5141413;27;19923;-74
2021/05/12 08:15:06;;;;;;;;;;;;;;;27.08;23.72;94238.50;5141352;27;19969;-74
2021/05/12 08:17:32;;;;;;;;;;;;;;;27.03;23.82;94233.44;5138826;27;19931;-74
2021/05/12 08:19:59;;;;;;;;;;;;;;;27.12;23.85;94234.75;5140053;27;20387;-74
2021/05/12 08:22:25;;;;;;;;;;;;;;;27.26;23.93;94226.28;5139761;27;19980;-74
2021/05/12 08:24:50;;;;;;;;;;;;;;;27.25;23.67;94214.06;5140829;27;19922;-74
2021/05/12 08:27:15;;;;;;;;;;;;;;;27.13;24.08;94214.19;5142230;27;20325;-74
2021/05/12 08:29:43;;;;;;;;;;;;;;;27.10;24.54;94206.88;5140455;27;19980;-74
2021/05/12 08:32:10;;;;;;;;;;;;;;;27.22;24.81;94214.75;5140631;27;20382;-74
2021/05/12 08:34:35;;;;;;;;;;;;;;;27.10;24.29;94198.88;5140862;27;20433;-74
2021/05/12 08:37:01;;;;;;;;;;;;;;;26.89;24.54;94207.19;5140801;27;19955;-74
2021/05/12 08:39:26;;;;;;;;;;;;;;;26.67;24.66;94205.19;5141467;27;19923;-74
2021/05/12 08:41:51;;;;;;;;;;;;;;;26.32;25.16;94200.56;5139653;27;19927;-74
2021/05/12 08:44:17;;;;;;;;;;;;;;;26.07;25.39;94193.88;5141097;27;19919;-74
2021/05/12 08:46:42;;;;;;;;;;;;;;;25.88;25.96;94199.91;5141441;27;19957;-74
2021/05/12 08:49:08;;;;;;;;;;;;;;;25.83;26.19;94190.25;5120437;27;19920;-74
2021/05/12 08:51:33;;;;;;;;;;;;;;;25.97;25.48;94187.19;5138930;27;19924;-74
2021/05/12 08:53:58;;;;;;;;;;;;;;;26.29;25.25;94194.03;5122000;27;19923;-74
2021/05/12 08:56:24;;;;;;;;;;;;;;;26.62;25.25;94185.66;5139169;27;19923;-74
2021/05/12 08:58:49;;;;;;;;;;;;;;;26.77;24.85;94193.97;5139027;27;19915;-74
2021/05/12 09:01:15;;;;;;;;;;;;;;;26.65;24.97;94184.19;5140792;27;19923;-74
2021/05/12 09:03:41;;;;;;;;;;;;;;;26.80;25.19;94180.69;5137006;27;20418;-74
2021/05/12 09:06:07;;;;;;;;;;;;;;;26.92;25.28;94180.59;5136943;27;20433;-74
2021/05/12 09:08:32;;;;;;;;;;;;;;;26.98;25.18;94182.97;5143397;27;19927;-74
2021/05/12 09:10:57;;;;;;;;;;;;;;;27.02;25.22;94179.28;5139475;27;19953;-74
2021/05/12 09:13:53;;;;;;;;;;;;;;;27.01;25.11;94184.94;5136864;27;19923;-74
2021/05/12 09:16:21;;;;;;;;;;;;;;;26.91;25.61;94173.69;5138350;27;20390;-74
2021/05/12 09:18:47;;;;;;;;;;;;;;;26.82;25.77;94170.44;5140894;27;19926;-74
2021/05/12 09:21:12;;;;;;;;;;;;;;;26.81;25.57;94166.25;5141254;27;20349;-74
2021/05/12 09:23:41;;;;;;;;;;;;;;;26.88;25.35;94169.06;5144066;27;19958;-73
2021/05/12 09:26:10;;;;;;;;;;;;;;;26.86;25.35;94159.88;5145143;27;20428;-73
2021/05/12 09:28:35;;;;;;;;;;;;;;;26.80;25.73;94162.03;5142553;27;20313;-74
2021/05/12 09:31:04;;;;;;;;;;;;;;;26.78;25.54;94158.94;5139347;27;19923;-74
2021/05/12 09:33:30;;;;;;;;;;;;;;;26.76;25.37;94155.84;5139016;27;19943;-74
2021/05/12 09:35:56;;;;;;;;;;;;;;;26.66;25.90;94159.06;5139777;27;19925;-74
2021/05/12 09:38:22;;;;;;;;;;;;;;;26.34;26.11;94155.66;5139322;27;19923;-74
2021/05/12 09:41:05;;;;;;;;;;;;;;;26.58;26.17;94155.50;5140399;27;20473;-74
2021/05/12 09:43:31;;;;;;;;;;;;;;;26.81;25.70;94152.91;5138986;27;19999;-74
2021/05/12 09:46:15;;;;;;;;;;;;;;;27.00;25.47;94151.34;5141227;27;19919;-74
2021/05/12 09:48:45;;;;;;;;;;;;;;;27.15;25.14;94150.53;5140266;27;19927;-74
2021/05/12 09:51:22;;;;;;;;;;;;;;;27.35;25.04;94154.75;5138132;27;19919;-74
2021/05/12 09:54:06;;;;;;;;;;;;;;;27.48;25.22;94152.69;5138543;27;19927;-73
2021/05/12 09:56:56;;;;;;;;;;;;;;;27.40;24.98;94151.78;5138934;27;19935;-73
2021/05/12 09:59:23;;;;;;;;;;;;;;;27.38;25.00;94147.94;5128826;27;20459;-73
2021/05/12 10:01:48;;;;;;;;;;;;;;;27.43;24.96;94153.75;5137446;27;19919;-73
2021/05/12 10:04:23;;;;;;;;;;;;;;;27.50;24.74;94150.44;5138235;27;19946;-73
2021/05/12 10:06:53;;;;;;;;;;;;;;;27.42;25.04;94141.53;5138526;27;19942;-74
2021/05/12 10:09:22;;;;;;;;;;;;;;;27.35;25.27;94138.75;5137251;27;19926;-74
2021/05/12 10:12:02;;;;;;;;;;;;;;;27.17;26.04;94140.28;5121764;27;20080;-74
2021/05/12 10:14:28;;;;;;;;;;;;;;;26.90;26.17;94134.81;5138788;27;19946;-74
2021/05/12 10:16:53;;;;;;;;;;;;;;;26.83;26.51;94131.97;5140598;27;19923;-74
2021/05/12 10:19:18;;;;;;;;;;;;;;;26.75;27.50;94127.63;5137233;27;19920;-74
2021/05/12 10:21:44;;;;;;;;;;;;;;;26.88;26.93;94129.06;5140426;27;20359;-74
2021/05/12 10:24:09;;;;;;;;;;;;;;;26.98;26.62;94124.25;5138843;27;19919;-74
2021/05/12 10:26:34;;;;;;;;;;;;;;;27.10;26.91;94113.47;5138296;27;19919;-74
2021/05/12 10:28:59;;;;;;;;;;;;;;;27.23;26.83;94120.22;5139635;27;19960;-74
2021/05/12 10:31:26;;;;;;;;;;;;;;;27.43;26.52;94118.25;5144585;27;20390;-75
2021/05/12 10:33:52;;;;;;;;;;;;;;;27.56;25.88;94113.53;5124639;27;19931;-74
2021/05/12 10:36:19;;;;;;;;;;;;;;;27.63;25.87;94116.31;5125621;27;19960;-73
2021/05/12 10:38:45;;;;;;;;;;;;;;;27.67;25.55;94106.50;5141731;27;19966;-73
2021/05/12 10:41:30;;;;;;;;;;;;;;;27.73;25.60;94105.06;5141022;27;19955;-74
2021/05/12 10:43:55;;;;;;;;;;;;;;;27.74;25.74;94103.94;5141676;27;19919;-74
2021/05/12 10:46:24;;;;;;;;;;;;;;;27.82;25.51;94102.91;5141529;27;19923;-73
2021/05/12 10:48:50;;;;;;;;;;;;;;;27.91;25.39;94090.09;5141044;27;19922;-74
2021/05/12 10:51:18;;;;;;;;;;;;;;;27.97;25.42;94099.31;5138726;27;19927;-73
2021/05/12 10:53:44;;;;;;;;;;;;;;;27.96;25.44;94092.44;5140291;27;19959;-74
2021/05/12 10:56:14;;;;;;;;;;;;;;;27.91;25.10;94084.75;5142522;27;20421;-75
2021/05/12 10:58:46;;;;;;;;;;;;;;;27.86;25.55;94090.41;5139559;27;19926;-73
2021/05/12 11:01:11;;;;;;;;;;;;;;;27.81;25.67;94080.75;5142156;27;19923;-73
2021/05/12 11:03:48;;;;;;;;;;;;;;;27.76;25.68;94088.31;5142423;27;20388;-73
2021/05/12 11:06:14;;;;;;;;;;;;;;;27.61;26.06;94091.84;5142504;27;20428;-73
2021/05/12 11:08:59;;;;;;;;;;;;;;;27.49;26.36;94090.91;5141742;27;19919;-73
2021/05/12 11:11:24;;;;;;;;;;;;;;;27.33;26.29;94084.91;5142011;27;19923;-74
2021/05/12 11:13:57;;;;;;;;;;;;;;;27.13;26.46;94081.50;5123682;27;19926;-73
2021/05/12 11:16:24;;;;;;;;;;;;;;;26.98;26.82;94081.56;5141672;27;19958;-73
2021/05/12 11:18:49;;;;;;;;;;;;;;;26.80;26.81;94071.34;5142242;27;19942;-74
2021/05/12 11:21:34;;;;;;;;;;;;;;;26.63;27.08;94066.44;5137941;27;20386;-73
2021/05/12 11:24:10;;;;;;;;;;;;;;;26.50;27.59;94057.78;5141426;27;20057;-73
2021/05/12 11:29:09;;;;;;;;;;;;;;;26.62;26.75;94051.56;5144633;27;19922;-82
2021/05/12 11:31:38;;;;;;;;;;;;;;;26.84;26.71;94045.50;5152009;27;20333;-81
2021/05/12 11:34:04;;;;;;;;;;;;;;;26.91;26.47;94039.53;5129528;27;19919;-84
2021/05/12 11:36:33;;;;;;;;;;;;;;;26.76;26.86;94033.16;5151554;27;21714;-85
2021/05/12 11:44:34;;;;;;;;;;;;;;;26.92;26.96;94035.72;5058558;28;19932;-84
2021/05/12 11:50:02;;;;;;;;;;;;;;;27.24;26.92;94025.66;5059406;28;19948;-84
2021/05/12 11:52:31;;;;;;;;;;;;;;;27.31;27.03;94024.97;5207358;22;19923;-84
2021/05/12 11:55:05;;;;;;;;;;;;;;;27.29;27.11;94028.00;5123229;28;19928;-83
2021/05/12 11:57:31;;;;;;;;;;;;;;;27.44;26.65;94024.44;5117379;27;19953;-84
2021/05/12 12:00:02;;;;;;;;;;;;;;;27.46;26.86;94030.19;5116810;27;20402;-84
2021/05/12 12:02:27;;;;;;;;;;;;;;;27.32;26.94;94016.63;5123507;27;19923;-84
2021/05/12 12:04:59;;;;;;;;;;;;;;;27.35;26.84;94026.59;5130413;27;19926;-84
2021/05/12 12:07:24;;;;;;;;;;;;;;;27.27;26.91;94021.50;5131921;27;19939;-85
2021/05/12 12:09:58;;;;;;;;;;;;;;;27.29;27.28;94006.66;5132113;27;20063;-85
2021/05/12 12:12:23;;;;;;;;;;;;;;;27.37;26.95;94008.31;5150685;27;19930;-84
2021/05/12 12:14:49;;;;;;;;;;;;;;;27.38;27.54;93999.19;5134200;27;19927;-84
2021/05/12 12:17:14;;;;;;;;;;;;;;;27.27;27.25;93987.56;5150972;27;19946;-84
2021/05/12 12:22:16;;;;;;;;;;;;;;;27.01;27.93;93982.97;5177197;22;20452;-85
2021/05/12 12:24:41;;;;;;;;;;;;;;;26.73;28.86;93974.41;5094201;28;20369;-83
2021/05/12 12:29:32;;;;;;;;;;;;;;;26.86;28.30;93963.22;5177520;22;19920;-84
2021/05/12 12:32:00;;;;;;;;;;;;;;;26.75;28.83;93958.84;5118974;28;19920;-83
2021/05/12 12:34:28;;;;;;;;;;;;;;;26.86;28.61;93963.22;5081871;28;20182;-84
2021/05/12 12:36:54;;;;;;;;;;;;;;;26.79;28.85;93965.00;5080737;28;19924;-84
2021/05/12 12:39:20;;;;;;;;;;;;;;;26.57;28.88;93955.84;5082218;28;19942;-84
2021/05/12 12:41:50;;;;;;;;;;;;;;;26.33;29.22;93962.22;5098141;28;19920;-83
2021/05/12 12:44:15;;;;;;;;;;;;;;;26.19;29.22;93957.38;5098018;28;19920;-84
2021/05/12 12:46:41;;;;;;;;;;;;;;;25.91;30.20;93960.25;5098514;28;19974;-83
2021/05/12 12:49:06;;;;;;;;;;;;;;;25.68;30.78;93960.13;5097408;28;20018;-84
2021/05/12 12:51:38;;;;;;;;;;;;;;;25.50;30.96;93966.16;5098617;28;19980;-84
2021/05/12 12:54:04;;;;;;;;;;;;;;;25.21;31.60;93970.03;5107454;28;19935;-83
2021/05/12 12:56:48;;;;;;;;;;;;;;;25.11;32.19;93972.09;5109902;28;19920;-84
2021/05/12 12:59:15;;;;;;;;;;;;;;;25.16;32.10;93972.97;5104124;28;19959;-83
2021/05/12 13:01:40;;;;;;;;;;;;;;;25.20;32.05;93976.47;5096728;28;19962;-83
2021/05/12 13:04:14;;;;;;;;;;;;;;;25.27;32.12;93976.66;5097471;28;19924;-84
2021/05/12 13:06:40;;;;;;;;;;;;;;;25.16;32.00;93975.63;5081275;28;20357;-83
2021/05/12 13:11:56;;;;;;;;;;;;;;;25.18;31.61;93987.47;5416656;22;19927;-83